Time;durP1;ratioP1;P1;durP2;ratioP2;P2;SDS_P1;SDS_P2;PMS_P1;PMS_P2;Temp;Humidity;BMP_temperature;BMP_pressure;BME280_temperature;BME280_humidity;BME280_pressure;Samples;Min_cycle;Max_cycle;Signal;HPM_P1;HPM_P2
2022/09/06 00:00:21;;;;;;;;;;;14.50;99.90;;;;;;4590528;19;19999;-22
2022/09/06 00:02:00;;;;;;;;;;;14.50;99.90;;;;;;4593347;19;19943;-25
2022/09/06 00:03:31;;;;;;;;;;;14.50;99.90;;;;;;4592673;19;19935;-27
2022/09/06 00:05:02;;;;;;;;;;;14.50;99.90;;;;;;4593355;19;19915;-25
2022/09/06 00:06:33;;;;;;;;;;;14.50;99.90;;;;;;4590869;19;19923;-24
2022/09/06 00:08:04;;;;;;;;;;;14.40;99.90;;;;;;4590821;19;19919;-21
2022/09/06 00:09:35;;;;;;;;;;;14.50;99.90;;;;;;4593560;19;19918;-26
2022/09/06 00:11:06;;;;;;;;;;;14.40;99.90;;;;;;4591585;19;19927;-24
2022/09/06 00:12:37;;;;;;;;;;;14.40;99.90;;;;;;4593119;19;19960;-23
2022/09/06 00:14:08;;;;;;;;;;;14.40;99.90;;;;;;4593062;19;19922;-24
2022/09/06 00:15:39;;;;;;;;;;;14.40;99.90;;;;;;4592703;19;19911;-26
2022/09/06 00:17:10;;;;;;;;;;;14.40;99.90;;;;;;4592796;19;19938;-23
2022/09/06 00:18:41;;;;;;;;;;;14.40;99.90;;;;;;4592014;19;19915;-25
2022/09/06 00:20:14;;;;;;;;;;;14.40;99.90;;;;;;4590498;19;19919;-26
2022/09/06 00:21:46;;;;;;;;;;;14.40;99.90;;;;;;4593140;19;20393;-25
2022/09/06 00:23:16;;;;;;;;;;;14.30;99.90;;;;;;4591298;19;19923;-23
2022/09/06 00:24:47;;;;;;;;;;;14.30;99.90;;;;;;4593363;19;19940;-25
2022/09/06 00:26:18;;;;;;;;;;;14.30;99.90;;;;;;4592286;19;19940;-24
2022/09/06 00:27:53;;;;;;;;;;;14.30;99.90;;;;;;4592574;19;19915;-28
2022/09/06 00:29:24;;;;;;;;;;;14.30;99.90;;;;;;4591986;19;19925;-23
2022/09/06 00:30:56;;;;;;;;;;;14.30;99.90;;;;;;4591203;19;19915;-25
2022/09/06 00:32:27;;;;;;;;;;;14.20;99.90;;;;;;4593040;19;19915;-24
2022/09/06 00:33:58;;;;;;;;;;;14.20;99.90;;;;;;4591252;19;20452;-25
2022/09/06 00:35:30;;;;;;;;;;;14.20;99.90;;;;;;4590531;19;19919;-26
2022/09/06 00:37:00;;;;;;;;;;;14.20;99.90;;;;;;4591695;19;19919;-22
2022/09/06 00:38:31;;;;;;;;;;;14.20;99.90;;;;;;4591602;19;19922;-23
2022/09/06 00:40:03;;;;;;;;;;;14.20;99.90;;;;;;4591021;19;20281;-26
2022/09/06 00:41:34;;;;;;;;;;;14.20;99.90;;;;;;4591633;19;19933;-27
2022/09/06 00:43:04;;;;;;;;;;;14.20;99.90;;;;;;4592616;19;19940;-23
2022/09/06 00:44:36;;;;;;;;;;;14.20;99.90;;;;;;4591744;19;19942;-22
2022/09/06 00:46:07;;;;;;;;;;;14.20;99.90;;;;;;4591821;19;19922;-24
2022/09/06 00:47:39;;;;;;;;;;;14.20;99.90;;;;;;4589458;19;19917;-26
2022/09/06 00:49:15;;;;;;;;;;;14.10;99.90;;;;;;4591384;19;19974;-24
2022/09/06 00:50:45;;;;;;;;;;;14.10;99.90;;;;;;4589973;19;19922;-23
2022/09/06 00:52:18;;;;;;;;;;;14.10;99.90;;;;;;4591210;19;19983;-23
2022/09/06 00:53:49;;;;;;;;;;;14.10;99.90;;;;;;4591314;19;19919;-25
2022/09/06 00:55:20;;;;;;;;;;;14.10;99.90;;;;;;4592590;19;20393;-24
2022/09/06 00:56:51;;;;;;;;;;;14.10;99.90;;;;;;4590359;19;19986;-24
2022/09/06 00:58:22;;;;;;;;;;;14.00;99.90;;;;;;4591068;19;20243;-27
2022/09/06 00:59:53;;;;;;;;;;;14.00;99.90;;;;;;4591025;19;19924;-22
2022/09/06 01:01:24;;;;;;;;;;;14.00;99.90;;;;;;4591587;19;19926;-25
2022/09/06 01:02:55;;;;;;;;;;;14.00;99.90;;;;;;4590340;19;19922;-23
2022/09/06 01:04:26;;;;;;;;;;;14.00;99.90;;;;;;4592060;19;19918;-24
2022/09/06 01:05:57;;;;;;;;;;;14.00;99.90;;;;;;4590582;19;19919;-22
2022/09/06 01:07:50;;;;;;;;;;;14.00;99.90;;;;;;4589911;19;19946;-26
2022/09/06 01:09:28;;;;;;;;;;;14.00;99.90;;;;;;4589188;19;19943;-23
2022/09/06 01:11:18;;;;;;;;;;;14.00;99.90;;;;;;4590744;19;19919;-24
2022/09/06 01:12:54;;;;;;;;;;;13.90;99.90;;;;;;4591287;19;20330;-27
2022/09/06 01:14:44;;;;;;;;;;;13.90;99.90;;;;;;4589110;19;19983;-24
2022/09/06 01:16:29;;;;;;;;;;;13.90;99.90;;;;;;4592177;19;19990;-25
2022/09/06 01:18:02;;;;;;;;;;;13.90;99.90;;;;;;4589845;19;19918;-25
2022/09/06 01:19:43;;;;;;;;;;;13.90;99.90;;;;;;4589357;19;19944;-23
2022/09/06 01:21:23;;;;;;;;;;;13.90;99.90;;;;;;4590388;19;19926;-26
2022/09/06 01:23:13;;;;;;;;;;;13.90;99.90;;;;;;4590380;19;20015;-23
2022/09/06 01:24:53;;;;;;;;;;;13.80;99.90;;;;;;4591631;19;19919;-23
2022/09/06 01:26:29;;;;;;;;;;;13.80;99.90;;;;;;4591873;19;19914;-23
2022/09/06 01:28:19;;;;;;;;;;;13.80;99.90;;;;;;4590539;19;19974;-22
2022/09/06 01:29:50;;;;;;;;;;;13.80;99.90;;;;;;4591140;19;19918;-22
2022/09/06 01:31:24;;;;;;;;;;;13.80;99.90;;;;;;4590419;19;19955;-25
2022/09/06 01:33:10;;;;;;;;;;;13.80;99.90;;;;;;4590422;19;19922;-23
2022/09/06 01:34:43;;;;;;;;;;;13.80;99.90;;;;;;4591237;19;19914;-23
2022/09/06 01:36:15;;;;;;;;;;;13.80;99.90;;;;;;4588918;19;20341;-23
2022/09/06 01:37:46;;;;;;;;;;;13.80;99.90;;;;;;4588930;19;20628;-24
2022/09/06 01:39:28;;;;;;;;;;;13.80;99.90;;;;;;4589886;19;19941;-27
2022/09/06 01:40:59;;;;;;;;;;;13.80;99.90;;;;;;4589566;19;19923;-24
2022/09/06 01:42:30;;;;;;;;;;;13.80;99.90;;;;;;4589428;19;19921;-23
2022/09/06 01:44:01;;;;;;;;;;;13.80;99.90;;;;;;4589331;19;19923;-22
2022/09/06 01:45:47;;;;;;;;;;;13.80;99.90;;;;;;4590136;19;19930;-24
2022/09/06 01:47:31;;;;;;;;;;;13.70;99.90;;;;;;4588087;19;19994;-24
2022/09/06 01:49:11;;;;;;;;;;;13.70;99.90;;;;;;4589668;19;19922;-28
2022/09/06 01:51:02;;;;;;;;;;;13.70;99.90;;;;;;4589505;19;20023;-29
2022/09/06 01:52:52;;;;;;;;;;;13.70;99.90;;;;;;4588233;19;19978;-26
2022/09/06 01:54:32;;;;;;;;;;;13.70;99.90;;;;;;4590427;19;19915;-22
2022/09/06 01:56:04;;;;;;;;;;;13.60;99.90;;;;;;4588914;19;19950;-26
2022/09/06 01:58:00;;;;;;;;;;;13.70;99.90;;;;;;4588658;19;20010;-26
2022/09/06 01:59:38;;;;;;;;;;;13.70;99.90;;;;;;4588437;19;20688;-21
2022/09/06 02:01:12;;;;;;;;;;;13.60;99.90;;;;;;4587925;19;19923;-22
2022/09/06 02:02:59;;;;;;;;;;;13.60;99.90;;;;;;4588979;19;19931;-22
2022/09/06 02:04:31;;;;;;;;;;;13.60;99.90;;;;;;4588393;19;19967;-24
2022/09/06 02:06:03;;;;;;;;;;;13.70;99.90;;;;;;4587633;19;19911;-24
2022/09/06 02:07:34;;;;;;;;;;;13.60;99.90;;;;;;4588510;19;19919;-26
2022/09/06 02:09:07;;;;;;;;;;;13.60;99.90;;;;;;4588599;19;19920;-23
2022/09/06 02:10:48;;;;;;;;;;;13.60;99.90;;;;;;4587792;19;20262;-26
2022/09/06 02:12:20;;;;;;;;;;;13.60;99.90;;;;;;4589164;19;19923;-25
2022/09/06 02:13:53;;;;;;;;;;;13.50;99.90;;;;;;4588404;19;19925;-25
2022/09/06 02:15:27;;;;;;;;;;;13.50;99.90;;;;;;4586868;19;20397;-25
2022/09/06 02:16:58;;;;;;;;;;;13.50;99.90;;;;;;4587578;19;19911;-24
2022/09/06 02:18:30;;;;;;;;;;;13.50;99.90;;;;;;4588055;19;20026;-23
2022/09/06 02:20:03;;;;;;;;;;;13.50;99.90;;;;;;4586845;19;19974;-23
2022/09/06 02:21:35;;;;;;;;;;;13.50;99.90;;;;;;4587601;19;20301;-26
2022/09/06 02:23:07;;;;;;;;;;;13.50;99.90;;;;;;4586407;19;19918;-24
2022/09/06 02:24:39;;;;;;;;;;;13.50;99.90;;;;;;4588350;19;19915;-25
2022/09/06 02:26:14;;;;;;;;;;;13.40;99.90;;;;;;4587197;19;20500;-22
2022/09/06 02:27:46;;;;;;;;;;;13.40;99.90;;;;;;4587250;19;19937;-24
2022/09/06 02:29:17;;;;;;;;;;;13.40;99.90;;;;;;4586812;19;19923;-25
2022/09/06 02:30:48;;;;;;;;;;;13.40;99.90;;;;;;4586884;19;19971;-25
2022/09/06 02:32:22;;;;;;;;;;;13.40;99.90;;;;;;4588090;19;20324;-24
2022/09/06 02:33:53;;;;;;;;;;;13.40;99.90;;;;;;4586995;19;19929;-25
2022/09/06 02:35:24;;;;;;;;;;;13.40;99.90;;;;;;4588202;19;19926;-23
2022/09/06 02:36:55;;;;;;;;;;;13.40;99.90;;;;;;4586258;19;19919;-22
2022/09/06 02:38:26;;;;;;;;;;;13.40;99.90;;;;;;4587534;19;19915;-23
2022/09/06 02:39:57;;;;;;;;;;;13.40;99.90;;;;;;4587315;19;19915;-24
2022/09/06 02:41:29;;;;;;;;;;;13.40;99.90;;;;;;4588611;19;19911;-22
2022/09/06 02:43:00;;;;;;;;;;;13.40;99.90;;;;;;4587483;19;19930;-25
2022/09/06 02:44:33;;;;;;;;;;;13.40;99.90;;;;;;4586704;19;19907;-23
2022/09/06 02:46:04;;;;;;;;;;;13.30;99.90;;;;;;4588340;19;20002;-25
2022/09/06 02:47:35;;;;;;;;;;;13.30;99.90;;;;;;4588965;19;19929;-25
2022/09/06 02:49:06;;;;;;;;;;;13.30;99.90;;;;;;4589804;19;20282;-23
2022/09/06 02:50:37;;;;;;;;;;;13.30;99.90;;;;;;4589825;19;19911;-26
2022/09/06 02:52:08;;;;;;;;;;;13.40;99.90;;;;;;4590640;19;19927;-24
2022/09/06 02:53:41;;;;;;;;;;;13.30;99.90;;;;;;4589517;19;19929;-22
2022/09/06 02:55:12;;;;;;;;;;;13.30;99.90;;;;;;4589532;19;19915;-24
2022/09/06 02:56:43;;;;;;;;;;;13.30;99.90;;;;;;4590416;19;20017;-25
2022/09/06 02:58:14;;;;;;;;;;;13.30;99.90;;;;;;4589324;19;19923;-26
2022/09/06 02:59:45;;;;;;;;;;;13.30;99.90;;;;;;4593814;19;19923;-24
2022/09/06 03:01:16;;;;;;;;;;;13.30;99.90;;;;;;4593981;19;20306;-23
2022/09/06 03:02:47;;;;;;;;;;;13.30;99.90;;;;;;4594560;19;19922;-23
2022/09/06 03:04:18;;;;;;;;;;;13.30;99.90;;;;;;4594060;19;19986;-22
2022/09/06 03:05:50;;;;;;;;;;;13.30;99.90;;;;;;4592415;19;19926;-24
2022/09/06 03:07:20;;;;;;;;;;;13.30;99.90;;;;;;4593635;19;19939;-23
2022/09/06 03:08:51;;;;;;;;;;;13.30;99.90;;;;;;4594417;19;20471;-25
2022/09/06 03:10:23;;;;;;;;;;;13.40;99.90;;;;;;4593793;19;19986;-22
2022/09/06 03:11:54;;;;;;;;;;;13.40;99.90;;;;;;4592873;19;19921;-24
2022/09/06 03:13:25;;;;;;;;;;;13.40;99.90;;;;;;4593142;19;19919;-23
2022/09/06 03:14:56;;;;;;;;;;;13.40;99.90;;;;;;4592626;19;20337;-27
2022/09/06 03:16:27;;;;;;;;;;;13.40;99.90;;;;;;4593672;19;19931;-23
2022/09/06 03:17:58;;;;;;;;;;;13.40;99.90;;;;;;4592234;19;19915;-24
2022/09/06 03:19:29;;;;;;;;;;;13.40;99.90;;;;;;4593393;19;19911;-22
2022/09/06 03:21:00;;;;;;;;;;;13.40;99.90;;;;;;4591399;19;19923;-24
2022/09/06 03:22:31;;;;;;;;;;;13.40;99.90;;;;;;4594184;19;19978;-23
2022/09/06 03:24:02;;;;;;;;;;;13.40;99.90;;;;;;4593033;19;19923;-24
2022/09/06 03:25:33;;;;;;;;;;;13.40;99.90;;;;;;4592201;19;19946;-28
2022/09/06 03:27:04;;;;;;;;;;;13.40;99.90;;;;;;4591923;19;19947;-24
2022/09/06 03:28:35;;;;;;;;;;;13.40;99.90;;;;;;4590720;19;19990;-25
2022/09/06 03:30:09;;;;;;;;;;;13.40;99.90;;;;;;4594024;19;19923;-24
2022/09/06 03:31:40;;;;;;;;;;;13.40;99.90;;;;;;4594136;19;19919;-24
2022/09/06 03:33:11;;;;;;;;;;;13.40;99.90;;;;;;4594016;19;19953;-22
2022/09/06 03:34:42;;;;;;;;;;;13.50;99.90;;;;;;4593242;19;19927;-23
2022/09/06 03:36:14;;;;;;;;;;;13.50;99.90;;;;;;4593162;19;19915;-23
2022/09/06 03:37:45;;;;;;;;;;;13.40;99.90;;;;;;4594581;19;19919;-25
2022/09/06 03:39:16;;;;;;;;;;;13.40;99.90;;;;;;4594910;19;19911;-23
2022/09/06 03:40:47;;;;;;;;;;;13.50;99.90;;;;;;4594072;19;19947;-23
2022/09/06 03:42:18;;;;;;;;;;;13.40;99.90;;;;;;4594901;19;19922;-22
2022/09/06 03:43:49;;;;;;;;;;;13.40;99.90;;;;;;4595317;19;19919;-23
2022/09/06 03:45:20;;;;;;;;;;;13.40;99.90;;;;;;4593068;19;19918;-20
2022/09/06 03:46:51;;;;;;;;;;;13.40;99.90;;;;;;4591616;19;20261;-26
2022/09/06 03:48:23;;;;;;;;;;;13.40;99.90;;;;;;4592520;19;19939;-24
2022/09/06 03:49:54;;;;;;;;;;;13.30;99.90;;;;;;4591625;19;19997;-22
2022/09/06 03:51:25;;;;;;;;;;;13.40;99.90;;;;;;4591989;19;19923;-23
2022/09/06 03:52:56;;;;;;;;;;;13.40;99.90;;;;;;4591642;19;19921;-21
2022/09/06 03:54:27;;;;;;;;;;;13.40;99.90;;;;;;4592339;19;19915;-22
2022/09/06 03:55:58;;;;;;;;;;;13.40;99.90;;;;;;4592419;19;19919;-22
2022/09/06 03:57:29;;;;;;;;;;;13.40;99.90;;;;;;4592471;19;19944;-22
2022/09/06 03:59:01;;;;;;;;;;;13.30;99.90;;;;;;4594283;19;20242;-23
2022/09/06 04:00:32;;;;;;;;;;;13.30;99.90;;;;;;4591469;19;19991;-21
2022/09/06 04:02:03;;;;;;;;;;;13.30;99.90;;;;;;4592210;19;19938;-22
2022/09/06 04:03:34;;;;;;;;;;;13.40;99.90;;;;;;4591199;19;19922;-22
2022/09/06 04:05:05;;;;;;;;;;;13.40;99.90;;;;;;4591305;19;20367;-25
2022/09/06 04:06:36;;;;;;;;;;;13.40;99.90;;;;;;4591879;19;19919;-24
2022/09/06 04:08:07;;;;;;;;;;;13.40;99.90;;;;;;4592252;19;20329;-23
2022/09/06 04:09:38;;;;;;;;;;;13.40;99.90;;;;;;4591292;19;19933;-22
2022/09/06 04:11:09;;;;;;;;;;;13.30;99.90;;;;;;4591903;19;19927;-25
2022/09/06 04:12:40;;;;;;;;;;;13.30;99.90;;;;;;4591869;19;20282;-24
2022/09/06 04:14:13;;;;;;;;;;;13.30;99.90;;;;;;4592855;19;19911;-21
2022/09/06 04:15:45;;;;;;;;;;;13.20;99.90;;;;;;4590511;19;19922;-23
2022/09/06 04:17:16;;;;;;;;;;;13.20;99.90;;;;;;4590584;19;20587;-20
2022/09/06 04:18:47;;;;;;;;;;;13.20;99.90;;;;;;4592444;19;19911;-21
2022/09/06 04:20:18;;;;;;;;;;;13.20;99.90;;;;;;4591743;19;20282;-24
2022/09/06 04:21:48;;;;;;;;;;;13.20;99.90;;;;;;4592505;19;19922;-27
2022/09/06 04:23:20;;;;;;;;;;;13.30;99.90;;;;;;4592236;19;19918;-22
2022/09/06 04:24:51;;;;;;;;;;;13.20;99.90;;;;;;4592416;19;20361;-26
2022/09/06 04:26:22;;;;;;;;;;;13.20;99.90;;;;;;4592451;19;20421;-24
2022/09/06 04:27:53;;;;;;;;;;;13.20;99.90;;;;;;4591603;19;20339;-21
2022/09/06 04:29:24;;;;;;;;;;;13.20;99.90;;;;;;4591413;19;19939;-25
2022/09/06 04:30:58;;;;;;;;;;;13.20;99.90;;;;;;4591222;19;19923;-22
2022/09/06 04:32:31;;;;;;;;;;;13.20;99.90;;;;;;4591184;19;19926;-23
2022/09/06 04:34:02;;;;;;;;;;;13.20;99.90;;;;;;4592798;19;19918;-22
2022/09/06 04:35:33;;;;;;;;;;;13.20;99.90;;;;;;4592362;19;19919;-21
2022/09/06 04:37:04;;;;;;;;;;;13.10;99.90;;;;;;4592167;19;19915;-23
2022/09/06 04:38:38;;;;;;;;;;;13.10;99.90;;;;;;4591881;19;19930;-23
2022/09/06 04:40:09;;;;;;;;;;;13.20;99.90;;;;;;4592259;19;19923;-23
2022/09/06 04:41:41;;;;;;;;;;;13.10;99.90;;;;;;4591938;19;19915;-27
2022/09/06 04:43:12;;;;;;;;;;;13.10;99.90;;;;;;4591773;19;19915;-27
2022/09/06 04:44:43;;;;;;;;;;;13.20;99.90;;;;;;4590719;19;19923;-24
2022/09/06 04:46:14;;;;;;;;;;;13.20;99.90;;;;;;4591095;19;19956;-22
2022/09/06 04:47:45;;;;;;;;;;;13.20;99.90;;;;;;4590701;19;19994;-26
2022/09/06 04:49:16;;;;;;;;;;;13.20;99.90;;;;;;4590886;19;20334;-23
2022/09/06 04:50:47;;;;;;;;;;;13.30;99.90;;;;;;4591554;19;19911;-23
2022/09/06 04:52:18;;;;;;;;;;;13.30;99.90;;;;;;4590441;19;19957;-23
2022/09/06 04:53:49;;;;;;;;;;;13.30;99.90;;;;;;4592030;19;19944;-22
2022/09/06 04:55:20;;;;;;;;;;;13.30;99.90;;;;;;4591148;19;19914;-22
2022/09/06 04:56:51;;;;;;;;;;;13.30;99.90;;;;;;4591680;19;19961;-23
2022/09/06 04:58:22;;;;;;;;;;;13.40;99.90;;;;;;4590923;19;19915;-22
2022/09/06 04:59:53;;;;;;;;;;;13.40;99.90;;;;;;4591614;19;19976;-22
2022/09/06 05:01:25;;;;;;;;;;;13.40;99.90;;;;;;4591524;19;19918;-26
2022/09/06 05:02:56;;;;;;;;;;;13.40;99.90;;;;;;4591691;19;19946;-25
2022/09/06 05:04:27;;;;;;;;;;;13.40;99.90;;;;;;4590822;19;19925;-24
2022/09/06 05:06:05;;;;;;;;;;;13.50;99.90;;;;;;4589532;19;19919;-25
2022/09/06 05:07:36;;;;;;;;;;;13.70;99.90;;;;;;4590330;19;19922;-30
2022/09/06 05:09:07;;;;;;;;;;;14.40;99.90;;;;;;4589996;19;20012;-25
2022/09/06 05:10:39;;;;;;;;;;;14.90;99.90;;;;;;4589417;19;19919;-25
2022/09/06 05:12:11;;;;;;;;;;;15.30;99.90;;;;;;4590148;19;19919;-25
2022/09/06 05:13:42;;;;;;;;;;;15.70;99.90;;;;;;4589693;19;19930;-24
2022/09/06 05:15:14;;;;;;;;;;;16.00;99.90;;;;;;4591654;19;19986;-24
2022/09/06 05:16:47;;;;;;;;;;;16.30;99.90;;;;;;4591568;19;19923;-24
2022/09/06 05:18:18;;;;;;;;;;;16.40;99.90;;;;;;4591009;19;19926;-25
2022/09/06 05:19:53;;;;;;;;;;;16.60;99.90;;;;;;4590970;19;20305;-25
2022/09/06 05:21:33;;;;;;;;;;;16.70;99.90;;;;;;4587964;19;19914;-23
2022/09/06 05:23:04;;;;;;;;;;;16.90;99.90;;;;;;4590098;19;20343;-24
2022/09/06 05:24:36;;;;;;;;;;;17.00;99.90;;;;;;4588984;19;19978;-23
2022/09/06 05:26:07;;;;;;;;;;;17.10;99.90;;;;;;4589762;19;19943;-26
2022/09/06 05:27:37;;;;;;;;;;;17.20;99.90;;;;;;4588924;19;19912;-27
2022/09/06 05:29:08;;;;;;;;;;;17.30;99.90;;;;;;4589318;19;20273;-25
2022/09/06 05:30:40;;;;;;;;;;;17.40;99.90;;;;;;4592013;19;19974;-25
2022/09/06 05:32:11;;;;;;;;;;;17.40;99.90;;;;;;4591526;19;19934;-25
2022/09/06 05:33:43;;;;;;;;;;;17.50;99.90;;;;;;4591116;19;20280;-22
2022/09/06 05:35:14;;;;;;;;;;;17.60;99.90;;;;;;4589515;19;19949;-24
2022/09/06 05:36:45;;;;;;;;;;;17.60;99.90;;;;;;4590056;19;19946;-26
2022/09/06 05:38:16;;;;;;;;;;;17.70;99.90;;;;;;4588245;19;19923;-23
2022/09/06 05:39:53;;;;;;;;;;;17.80;99.90;;;;;;4587225;19;20320;-25
2022/09/06 05:41:25;;;;;;;;;;;17.80;99.90;;;;;;4589224;19;19915;-25
2022/09/06 05:42:56;;;;;;;;;;;17.90;99.90;;;;;;4589453;19;19943;-23
2022/09/06 05:44:27;;;;;;;;;;;17.90;99.90;;;;;;4588963;19;19947;-25
2022/09/06 05:45:58;;;;;;;;;;;17.90;99.90;;;;;;4591501;19;19987;-26
2022/09/06 05:47:32;;;;;;;;;;;18.00;99.90;;;;;;4589945;19;19926;-25
2022/09/06 05:49:06;;;;;;;;;;;18.10;99.90;;;;;;4590446;19;20003;-24
2022/09/06 05:50:37;;;;;;;;;;;18.10;99.90;;;;;;4590768;19;19918;-27
2022/09/06 05:52:10;;;;;;;;;;;18.10;99.90;;;;;;4590428;19;19938;-22
2022/09/06 05:53:44;;;;;;;;;;;18.20;99.90;;;;;;4589897;19;19911;-27
2022/09/06 05:55:15;;;;;;;;;;;18.20;99.90;;;;;;4589620;19;20364;-26
2022/09/06 05:56:46;;;;;;;;;;;18.30;99.90;;;;;;4589108;19;20346;-23
2022/09/06 05:58:17;;;;;;;;;;;18.30;99.90;;;;;;4587178;19;19940;-27
2022/09/06 05:59:48;;;;;;;;;;;18.30;99.90;;;;;;4590070;19;19922;-24
2022/09/06 06:01:20;;;;;;;;;;;18.30;99.90;;;;;;4590592;19;20337;-27
2022/09/06 06:02:51;;;;;;;;;;;18.40;99.90;;;;;;4589927;19;19930;-24
2022/09/06 06:04:22;;;;;;;;;;;18.40;99.90;;;;;;4589805;19;20337;-25
2022/09/06 06:05:53;;;;;;;;;;;18.40;99.90;;;;;;4589297;19;20018;-25
2022/09/06 06:07:24;;;;;;;;;;;18.50;99.90;;;;;;4588829;19;19921;-25
2022/09/06 06:08:56;;;;;;;;;;;18.50;99.90;;;;;;4588237;19;20372;-25
2022/09/06 06:10:27;;;;;;;;;;;18.50;99.90;;;;;;4588788;19;19926;-23
2022/09/06 06:12:00;;;;;;;;;;;18.60;99.90;;;;;;4588637;19;19956;-25
2022/09/06 06:13:38;;;;;;;;;;;18.60;99.90;;;;;;4590793;19;20389;-26
2022/09/06 06:15:13;;;;;;;;;;;18.60;99.90;;;;;;4590808;19;19918;-26
2022/09/06 06:16:44;;;;;;;;;;;18.60;99.90;;;;;;4589248;19;19930;-24
2022/09/06 06:18:16;;;;;;;;;;;18.60;99.90;;;;;;4590045;19;19918;-26
2022/09/06 06:19:47;;;;;;;;;;;18.60;99.90;;;;;;4588376;19;19919;-27
2022/09/06 06:21:37;;;;;;;;;;;18.70;99.90;;;;;;4588220;19;19938;-26
2022/09/06 06:23:10;;;;;;;;;;;18.70;99.90;;;;;;4589326;19;19946;-24
2022/09/06 06:24:41;;;;;;;;;;;18.70;99.90;;;;;;4589567;19;20313;-23
2022/09/06 06:26:12;;;;;;;;;;;18.80;99.90;;;;;;4590013;19;19915;-22
2022/09/06 06:27:43;;;;;;;;;;;18.80;99.90;;;;;;4588364;19;19921;-21
2022/09/06 06:29:14;;;;;;;;;;;18.80;99.90;;;;;;4588047;19;19950;-27
2022/09/06 06:30:47;;;;;;;;;;;18.80;99.90;;;;;;4590588;19;19925;-25
2022/09/06 06:32:24;;;;;;;;;;;18.80;99.90;;;;;;4591589;19;19941;-26
2022/09/06 06:33:55;;;;;;;;;;;18.90;99.90;;;;;;4592970;19;20003;-23
2022/09/06 06:35:26;;;;;;;;;;;18.90;99.90;;;;;;4592873;19;19930;-24
2022/09/06 06:36:57;;;;;;;;;;;18.90;99.90;;;;;;4592946;19;20320;-23
2022/09/06 06:38:40;;;;;;;;;;;18.90;99.90;;;;;;4589763;19;19919;-25
2022/09/06 06:40:18;;;;;;;;;;;18.90;99.90;;;;;;4590595;19;19922;-25
2022/09/06 06:41:54;;;;;;;;;;;18.90;99.90;;;;;;4591185;19;20273;-27
2022/09/06 06:43:26;;;;;;;;;;;18.90;99.90;;;;;;4592545;19;19918;-24
2022/09/06 06:44:58;;;;;;;;;;;19.00;99.90;;;;;;4594997;19;19918;-23
2022/09/06 06:46:34;;;;;;;;;;;18.90;99.90;;;;;;4594676;19;19922;-25
2022/09/06 06:48:05;;;;;;;;;;;18.90;99.90;;;;;;4592885;19;19922;-27
2022/09/06 06:49:36;;;;;;;;;;;18.90;99.90;;;;;;4593722;19;20753;-27
2022/09/06 06:51:08;;;;;;;;;;;18.90;99.90;;;;;;4593492;19;19923;-26
2022/09/06 06:52:39;;;;;;;;;;;18.90;99.90;;;;;;4592918;19;19907;-22
2022/09/06 06:54:10;;;;;;;;;;;18.90;99.90;;;;;;4591640;19;19918;-26
2022/09/06 06:55:44;;;;;;;;;;;18.90;99.90;;;;;;4592575;19;19926;-24
2022/09/06 06:57:15;;;;;;;;;;;18.80;99.90;;;;;;4592083;19;19931;-23
2022/09/06 06:58:47;;;;;;;;;;;18.80;99.90;;;;;;4592667;19;20257;-26
2022/09/06 07:00:18;;;;;;;;;;;18.90;99.90;;;;;;4594077;19;19933;-26
2022/09/06 07:01:51;;;;;;;;;;;18.90;99.90;;;;;;4593458;19;20246;-25
2022/09/06 07:03:25;;;;;;;;;;;18.90;99.90;;;;;;4593459;19;19927;-26
2022/09/06 07:04:56;;;;;;;;;;;18.90;99.90;;;;;;4592766;19;19922;-24
2022/09/06 07:06:28;;;;;;;;;;;19.00;99.90;;;;;;4592390;19;19918;-24
2022/09/06 07:08:03;;;;;;;;;;;18.90;99.90;;;;;;4592172;19;19917;-24
2022/09/06 07:09:51;;;;;;;;;;;19.00;99.90;;;;;;4592177;19;20333;-24
2022/09/06 07:11:23;;;;;;;;;;;19.00;99.90;;;;;;4591614;19;19933;-24
2022/09/06 07:12:54;;;;;;;;;;;19.00;99.90;;;;;;4592057;19;19915;-28
2022/09/06 07:14:25;;;;;;;;;;;19.00;99.90;;;;;;4594792;19;19925;-25
2022/09/06 07:16:09;;;;;;;;;;;19.00;99.90;;;;;;4592858;19;19930;-25
2022/09/06 07:17:40;;;;;;;;;;;19.00;99.90;;;;;;4593157;19;19975;-26
2022/09/06 07:19:12;;;;;;;;;;;19.00;99.90;;;;;;4593470;19;19927;-25
2022/09/06 07:20:43;;;;;;;;;;;19.00;99.90;;;;;;4592277;19;19922;-24
2022/09/06 07:22:14;;;;;;;;;;;19.10;99.90;;;;;;4592943;19;19929;-25
2022/09/06 07:23:45;;;;;;;;;;;19.10;99.90;;;;;;4592402;19;20325;-23
2022/09/06 07:25:16;;;;;;;;;;;19.10;99.90;;;;;;4592158;19;19923;-24
2022/09/06 07:26:50;;;;;;;;;;;19.10;99.90;;;;;;4591943;19;19930;-30
2022/09/06 07:28:25;;;;;;;;;;;19.10;99.90;;;;;;4589745;19;19947;-28
2022/09/06 07:30:04;;;;;;;;;;;19.10;99.90;;;;;;4590480;19;19946;-25
2022/09/06 07:31:47;;;;;;;;;;;19.10;99.90;;;;;;4589852;19;19929;-25
2022/09/06 07:33:20;;;;;;;;;;;19.20;99.90;;;;;;4591490;19;19922;-27
2022/09/06 07:34:55;;;;;;;;;;;19.10;99.90;;;;;;4592989;19;19930;-22
2022/09/06 07:36:26;;;;;;;;;;;19.20;99.90;;;;;;4593670;19;19939;-30
2022/09/06 07:38:00;;;;;;;;;;;19.20;99.90;;;;;;4590250;19;19943;-26
2022/09/06 07:39:50;;;;;;;;;;;19.20;99.90;;;;;;4593229;19;19942;-28
2022/09/06 07:41:23;;;;;;;;;;;19.20;99.90;;;;;;4592602;19;19978;-26
2022/09/06 07:42:57;;;;;;;;;;;19.20;99.90;;;;;;4592482;19;19923;-24
2022/09/06 07:44:28;;;;;;;;;;;19.20;99.90;;;;;;4590365;19;20330;-29
2022/09/06 07:46:09;;;;;;;;;;;19.20;99.90;;;;;;4592239;19;19918;-24
2022/09/06 07:47:42;;;;;;;;;;;19.30;99.90;;;;;;4592479;19;20269;-24
2022/09/06 07:49:14;;;;;;;;;;;19.30;99.90;;;;;;4591705;19;19915;-31
2022/09/06 07:50:47;;;;;;;;;;;19.40;99.90;;;;;;4590915;19;19915;-22
2022/09/06 07:52:24;;;;;;;;;;;19.40;99.90;;;;;;4590099;19;20069;-25
2022/09/06 07:53:58;;;;;;;;;;;17.80;99.90;;;;;;4591155;19;19926;-23
2022/09/06 07:55:30;;;;;;;;;;;16.90;99.90;;;;;;4590813;19;19919;-23
2022/09/06 07:57:06;;;;;;;;;;;16.60;99.90;;;;;;4590031;19;20396;-32
2022/09/06 07:58:40;;;;;;;;;;;16.60;99.90;;;;;;4592909;19;19919;-24
2022/09/06 08:00:27;;;;;;;;;;;16.70;99.90;;;;;;4589048;19;19922;-26
2022/09/06 08:01:59;;;;;;;;;;;16.70;99.90;;;;;;4593167;19;19923;-25
2022/09/06 08:03:30;;;;;;;;;;;16.60;99.90;;;;;;4591777;19;19918;-23
2022/09/06 08:05:02;;;;;;;;;;;16.70;99.90;;;;;;4590151;19;19936;-27
2022/09/06 08:06:36;;;;;;;;;;;16.80;99.90;;;;;;4590243;19;19926;-24
2022/09/06 08:08:07;;;;;;;;;;;16.80;99.90;;;;;;4588723;19;19932;-24
2022/09/06 08:09:38;;;;;;;;;;;16.70;99.90;;;;;;4588017;19;19923;-27
2022/09/06 08:11:09;;;;;;;;;;;16.80;99.90;;;;;;4590658;19;19929;-26
2022/09/06 08:12:41;;;;;;;;;;;16.80;99.90;;;;;;4593134;19;19915;-24
2022/09/06 08:14:15;;;;;;;;;;;16.80;99.90;;;;;;4592680;19;19948;-24
2022/09/06 08:15:48;;;;;;;;;;;16.90;99.90;;;;;;4592823;19;19914;-25
2022/09/06 08:17:19;;;;;;;;;;;17.00;99.90;;;;;;4592253;19;20327;-26
2022/09/06 08:18:51;;;;;;;;;;;17.00;99.90;;;;;;4591764;19;20312;-22
2022/09/06 08:20:22;;;;;;;;;;;17.00;99.90;;;;;;4589598;19;20375;-23
2022/09/06 08:21:53;;;;;;;;;;;17.10;99.90;;;;;;4590714;19;19919;-24
2022/09/06 08:23:25;;;;;;;;;;;17.00;99.90;;;;;;4589949;19;19907;-30
2022/09/06 08:24:57;;;;;;;;;;;17.10;99.90;;;;;;4589736;19;19926;-28
2022/09/06 08:26:28;;;;;;;;;;;17.00;99.90;;;;;;4587730;19;19926;-28
2022/09/06 08:27:59;;;;;;;;;;;17.10;99.90;;;;;;4590104;19;19926;-26
2022/09/06 08:29:30;;;;;;;;;;;17.10;99.90;;;;;;4590533;19;20365;-22
2022/09/06 08:31:10;;;;;;;;;;;17.10;99.90;;;;;;4589865;19;19919;-25
2022/09/06 08:32:41;;;;;;;;;;;17.10;99.90;;;;;;4589644;19;19919;-25
2022/09/06 08:34:13;;;;;;;;;;;17.10;99.90;;;;;;4589099;19;19926;-25
2022/09/06 08:35:52;;;;;;;;;;;17.10;99.90;;;;;;4589153;19;19957;-23
2022/09/06 08:37:23;;;;;;;;;;;17.20;99.90;;;;;;4588623;19;19918;-25
2022/09/06 08:38:57;;;;;;;;;;;17.20;99.90;;;;;;4588254;19;19923;-22
2022/09/06 08:40:28;;;;;;;;;;;17.20;99.90;;;;;;4587453;19;19918;-22
2022/09/06 08:42:00;;;;;;;;;;;17.30;99.90;;;;;;4587910;19;19946;-31
2022/09/06 08:43:31;;;;;;;;;;;17.30;99.90;;;;;;4587662;19;19919;-26
2022/09/06 08:45:07;;;;;;;;;;;17.30;99.90;;;;;;4590464;19;19939;-23
2022/09/06 08:46:38;;;;;;;;;;;17.30;99.90;;;;;;4589879;19;19923;-22
2022/09/06 08:48:09;;;;;;;;;;;17.30;99.90;;;;;;4589909;19;20337;-25
2022/09/06 08:49:45;;;;;;;;;;;17.30;99.90;;;;;;4589339;19;20393;-22
2022/09/06 08:51:36;;;;;;;;;;;17.30;99.90;;;;;;4588897;19;19922;-29
2022/09/06 08:53:09;;;;;;;;;;;17.40;99.90;;;;;;4589796;19;19923;-30
2022/09/06 08:54:59;;;;;;;;;;;17.30;99.90;;;;;;4589397;19;19918;-23
2022/09/06 08:56:33;;;;;;;;;;;17.30;99.90;;;;;;4586919;19;19984;-25
2022/09/06 08:58:10;;;;;;;;;;;17.30;99.90;;;;;;4589333;19;19915;-26
2022/09/06 08:59:57;;;;;;;;;;;17.40;99.90;;;;;;4590965;19;19914;-26
2022/09/06 09:01:31;;;;;;;;;;;17.50;99.90;;;;;;4591243;19;19972;-23